Seven Sisters, Texas
Current Conditions -  °F | °C
As of 7:58 PM on Wednesday 17 Dec 2014 (Local Time) from KNMT Reporting Station
Overcast Overcast  
Wind Chill: 64°   Ceiling: 4700
Heat Index: 64°   Visibility: NA
Dew Point: 56°   Wind: 10mph
Humidity: 75%   Direction: 330°NNW
Pressure: 30"   Gusts: NA
Location:  27.9023°N, 98.6357°W
Report Text: KNMT 180158Z AUTO 33009KT OVC047 18/13 A3000 RMK AO2 SLP108 T01780133 PNO $
Loading
Personal Weather Stations






























Interactive Weather Map New forecast layout! Learn more

10-Day Weather Forecast

Advertisements
Track Severe Weather on mobile